sensor_id;sensor_type;location;lat;lon;timestamp;P1;durP1;ratioP1;P2;durP2;ratioP2
6015;SDS011;3036;49.960;8.454;2023-04-24T00:01:16;0.20;;;0.20;;
6015;SDS011;3036;49.960;8.454;2023-04-24T00:03:44;0.37;;;0.30;;
6015;SDS011;3036;49.960;8.454;2023-04-24T00:06:11;0.77;;;0.30;;
6015;SDS011;3036;49.960;8.454;2023-04-24T00:08:38;1.47;;;0.50;;
6015;SDS011;3036;49.960;8.454;2023-04-24T00:11:05;1.93;;;0.30;;
6015;SDS011;3036;49.960;8.454;2023-04-24T00:13:32;0.20;;;0.20;;
6015;SDS011;3036;49.960;8.454;2023-04-24T00:15:59;0.40;;;0.40;;
6015;SDS011;3036;49.960;8.454;2023-04-24T00:18:28;0.77;;;0.40;;
6015;SDS011;3036;49.960;8.454;2023-04-24T00:20:55;0.30;;;0.30;;
6015;SDS011;3036;49.960;8.454;2023-04-24T00:23:22;3.20;;;0.50;;
6015;SDS011;3036;49.960;8.454;2023-04-24T00:25:49;2.90;;;0.30;;
6015;SDS011;3036;49.960;8.454;2023-04-24T00:28:16;0.40;;;0.20;;
6015;SDS011;3036;49.960;8.454;2023-04-24T00:30:43;0.40;;;0.40;;
6015;SDS011;3036;49.960;8.454;2023-04-24T00:33:10;0.30;;;0.30;;
6015;SDS011;3036;49.960;8.454;2023-04-24T00:35:38;0.27;;;0.27;;
6015;SDS011;3036;49.960;8.454;2023-04-24T00:38:05;0.37;;;0.37;;
6015;SDS011;3036;49.960;8.454;2023-04-24T00:40:32;0.37;;;0.37;;
6015;SDS011;3036;49.960;8.454;2023-04-24T00:42:59;0.30;;;0.30;;
6015;SDS011;3036;49.960;8.454;2023-04-24T00:45:26;0.33;;;0.33;;
6015;SDS011;3036;49.960;8.454;2023-04-24T00:47:56;0.23;;;0.23;;
6015;SDS011;3036;49.960;8.454;2023-04-24T00:50:23;0.50;;;0.50;;
6015;SDS011;3036;49.960;8.454;2023-04-24T00:52:52;1.80;;;0.33;;
6015;SDS011;3036;49.960;8.454;2023-04-24T00:55:20;0.40;;;0.40;;
6015;SDS011;3036;49.960;8.454;2023-04-24T00:57:47;0.30;;;0.30;;
6015;SDS011;3036;49.960;8.454;2023-04-24T01:00:15;0.43;;;0.43;;
6015;SDS011;3036;49.960;8.454;2023-04-24T01:02:43;1.27;;;0.40;;
6015;SDS011;3036;49.960;8.454;2023-04-24T01:05:10;0.20;;;0.20;;
6015;SDS011;3036;49.960;8.454;2023-04-24T01:07:38;0.30;;;0.30;;
6015;SDS011;3036;49.960;8.454;2023-04-24T01:10:07;0.30;;;0.30;;
6015;SDS011;3036;49.960;8.454;2023-04-24T01:12:35;0.30;;;0.30;;
6015;SDS011;3036;49.960;8.454;2023-04-24T01:15:02;2.20;;;0.40;;
6015;SDS011;3036;49.960;8.454;2023-04-24T01:17:30;0.30;;;0.30;;
6015;SDS011;3036;49.960;8.454;2023-04-24T01:19:57;0.37;;;0.30;;
6015;SDS011;3036;49.960;8.454;2023-04-24T01:22:26;0.30;;;0.30;;
6015;SDS011;3036;49.960;8.454;2023-04-24T01:24:53;0.40;;;0.40;;
6015;SDS011;3036;49.960;8.454;2023-04-24T01:27:20;0.73;;;0.53;;
6015;SDS011;3036;49.960;8.454;2023-04-24T01:29:47;0.30;;;0.30;;
6015;SDS011;3036;49.960;8.454;2023-04-24T01:32:16;0.33;;;0.33;;
6015;SDS011;3036;49.960;8.454;2023-04-24T01:34:44;1.23;;;0.43;;
6015;SDS011;3036;49.960;8.454;2023-04-24T01:37:11;0.40;;;0.40;;
6015;SDS011;3036;49.960;8.454;2023-04-24T01:39:40;0.50;;;0.50;;
6015;SDS011;3036;49.960;8.454;2023-04-24T01:42:07;1.50;;;0.60;;
6015;SDS011;3036;49.960;8.454;2023-04-24T01:44:34;0.60;;;0.33;;
6015;SDS011;3036;49.960;8.454;2023-04-24T01:47:01;0.50;;;0.50;;
6015;SDS011;3036;49.960;8.454;2023-04-24T01:49:28;0.37;;;0.37;;
6015;SDS011;3036;49.960;8.454;2023-04-24T01:51:55;0.37;;;0.37;;
6015;SDS011;3036;49.960;8.454;2023-04-24T01:54:22;0.20;;;0.20;;
6015;SDS011;3036;49.960;8.454;2023-04-24T01:56:51;1.40;;;0.30;;
6015;SDS011;3036;49.960;8.454;2023-04-24T01:59:18;0.30;;;0.30;;
6015;SDS011;3036;49.960;8.454;2023-04-24T02:01:47;0.30;;;0.30;;
6015;SDS011;3036;49.960;8.454;2023-04-24T02:04:14;1.23;;;0.40;;
6015;SDS011;3036;49.960;8.454;2023-04-24T02:06:41;1.03;;;0.50;;
6015;SDS011;3036;49.960;8.454;2023-04-24T02:09:08;0.43;;;0.43;;
6015;SDS011;3036;49.960;8.454;2023-04-24T02:11:35;0.23;;;0.23;;
6015;SDS011;3036;49.960;8.454;2023-04-24T02:14:04;0.90;;;0.40;;
6015;SDS011;3036;49.960;8.454;2023-04-24T02:16:31;0.30;;;0.30;;
6015;SDS011;3036;49.960;8.454;2023-04-24T02:18:58;0.63;;;0.50;;
6015;SDS011;3036;49.960;8.454;2023-04-24T02:21:25;0.30;;;0.30;;
6015;SDS011;3036;49.960;8.454;2023-04-24T02:23:53;1.30;;;0.30;;
6015;SDS011;3036;49.960;8.454;2023-04-24T02:26:20;0.20;;;0.20;;
6015;SDS011;3036;49.960;8.454;2023-04-24T02:28:47;1.43;;;0.30;;
6015;SDS011;3036;49.960;8.454;2023-04-24T02:31:16;0.40;;;0.30;;
6015;SDS011;3036;49.960;8.454;2023-04-24T02:33:43;1.13;;;0.40;;
6015;SDS011;3036;49.960;8.454;2023-04-24T02:36:10;0.50;;;0.50;;
6015;SDS011;3036;49.960;8.454;2023-04-24T02:38:38;1.50;;;0.40;;
6015;SDS011;3036;49.960;8.454;2023-04-24T02:41:05;0.40;;;0.33;;
6015;SDS011;3036;49.960;8.454;2023-04-24T02:43:32;0.30;;;0.30;;
6015;SDS011;3036;49.960;8.454;2023-04-24T02:45:59;1.47;;;0.30;;
6015;SDS011;3036;49.960;8.454;2023-04-24T02:48:27;0.30;;;0.30;;
6015;SDS011;3036;49.960;8.454;2023-04-24T02:50:54;0.80;;;0.40;;
6015;SDS011;3036;49.960;8.454;2023-04-24T02:53:22;0.27;;;0.27;;
6015;SDS011;3036;49.960;8.454;2023-04-24T02:55:49;3.60;;;0.30;;
6015;SDS011;3036;49.960;8.454;2023-04-24T02:58:16;0.60;;;0.30;;
6015;SDS011;3036;49.960;8.454;2023-04-24T03:00:44;0.60;;;0.40;;
6015;SDS011;3036;49.960;8.454;2023-04-24T03:03:12;0.30;;;0.30;;
6015;SDS011;3036;49.960;8.454;2023-04-24T03:05:41;0.77;;;0.30;;
6015;SDS011;3036;49.960;8.454;2023-04-24T03:08:08;1.00;;;0.40;;
6015;SDS011;3036;49.960;8.454;2023-04-24T03:10:36;0.67;;;0.50;;
6015;SDS011;3036;49.960;8.454;2023-04-24T03:13:03;0.30;;;0.30;;
6015;SDS011;3036;49.960;8.454;2023-04-24T03:15:30;0.37;;;0.37;;
6015;SDS011;3036;49.960;8.454;2023-04-24T03:17:57;0.30;;;0.30;;
6015;SDS011;3036;49.960;8.454;2023-04-24T03:20:25;0.50;;;0.50;;
6015;SDS011;3036;49.960;8.454;2023-04-24T03:22:54;0.47;;;0.40;;
6015;SDS011;3036;49.960;8.454;2023-04-24T03:25:22;0.20;;;0.20;;
6015;SDS011;3036;49.960;8.454;2023-04-24T03:27:49;0.20;;;0.20;;
6015;SDS011;3036;49.960;8.454;2023-04-24T03:30:16;0.37;;;0.27;;
6015;SDS011;3036;49.960;8.454;2023-04-24T03:32:43;0.30;;;0.30;;
6015;SDS011;3036;49.960;8.454;2023-04-24T03:35:11;0.30;;;0.30;;
6015;SDS011;3036;49.960;8.454;2023-04-24T03:37:38;0.93;;;0.30;;
6015;SDS011;3036;49.960;8.454;2023-04-24T03:40:07;0.50;;;0.40;;
6015;SDS011;3036;49.960;8.454;2023-04-24T03:42:34;0.97;;;0.40;;
6015;SDS011;3036;49.960;8.454;2023-04-24T03:45:01;0.20;;;0.20;;
6015;SDS011;3036;49.960;8.454;2023-04-24T03:47:28;0.30;;;0.30;;
6015;SDS011;3036;49.960;8.454;2023-04-24T03:49:55;1.53;;;0.30;;
6015;SDS011;3036;49.960;8.454;2023-04-24T03:52:23;0.30;;;0.30;;
6015;SDS011;3036;49.960;8.454;2023-04-24T03:54:50;0.30;;;0.30;;
6015;SDS011;3036;49.960;8.454;2023-04-24T03:57:18;0.37;;;0.37;;
6015;SDS011;3036;49.960;8.454;2023-04-24T03:59:45;0.40;;;0.40;;
6015;SDS011;3036;49.960;8.454;2023-04-24T04:02:12;0.30;;;0.30;;
6015;SDS011;3036;49.960;8.454;2023-04-24T04:04:39;0.80;;;0.80;;
6015;SDS011;3036;49.960;8.454;2023-04-24T04:07:06;0.87;;;0.70;;
6015;SDS011;3036;49.960;8.454;2023-04-24T04:09:33;0.47;;;0.47;;
6015;SDS011;3036;49.960;8.454;2023-04-24T04:12:00;0.40;;;0.40;;
6015;SDS011;3036;49.960;8.454;2023-04-24T04:14:29;0.40;;;0.40;;
6015;SDS011;3036;49.960;8.454;2023-04-24T04:16:56;0.30;;;0.30;;
6015;SDS011;3036;49.960;8.454;2023-04-24T04:19:23;0.40;;;0.40;;
6015;SDS011;3036;49.960;8.454;2023-04-24T04:21:50;0.40;;;0.40;;
6015;SDS011;3036;49.960;8.454;2023-04-24T04:24:18;0.67;;;0.47;;
6015;SDS011;3036;49.960;8.454;2023-04-24T04:26:47;0.60;;;0.60;;
6015;SDS011;3036;49.960;8.454;2023-04-24T04:29:16;0.73;;;0.73;;
6015;SDS011;3036;49.960;8.454;2023-04-24T04:31:44;0.60;;;0.60;;
6015;SDS011;3036;49.960;8.454;2023-04-24T04:34:11;0.50;;;0.50;;
6015;SDS011;3036;49.960;8.454;2023-04-24T04:36:39;0.37;;;0.37;;
6015;SDS011;3036;49.960;8.454;2023-04-24T04:39:06;0.83;;;0.50;;
6015;SDS011;3036;49.960;8.454;2023-04-24T04:41:33;0.40;;;0.40;;
6015;SDS011;3036;49.960;8.454;2023-04-24T04:44:00;0.50;;;0.50;;
6015;SDS011;3036;49.960;8.454;2023-04-24T04:46:29;0.80;;;0.60;;
6015;SDS011;3036;49.960;8.454;2023-04-24T04:48:58;1.27;;;0.67;;
6015;SDS011;3036;49.960;8.454;2023-04-24T04:51:26;1.07;;;0.57;;
6015;SDS011;3036;49.960;8.454;2023-04-24T04:53:53;0.50;;;0.50;;
6015;SDS011;3036;49.960;8.454;2023-04-24T04:56:20;0.30;;;0.30;;
6015;SDS011;3036;49.960;8.454;2023-04-24T04:58:47;3.47;;;0.60;;
6015;SDS011;3036;49.960;8.454;2023-04-24T05:01:15;0.57;;;0.57;;
6015;SDS011;3036;49.960;8.454;2023-04-24T05:03:42;0.50;;;0.50;;
6015;SDS011;3036;49.960;8.454;2023-04-24T05:06:10;0.33;;;0.33;;
6015;SDS011;3036;49.960;8.454;2023-04-24T05:08:37;0.80;;;0.80;;
6015;SDS011;3036;49.960;8.454;2023-04-24T05:11:04;0.43;;;0.43;;
6015;SDS011;3036;49.960;8.454;2023-04-24T05:13:32;0.70;;;0.70;;
6015;SDS011;3036;49.960;8.454;2023-04-24T05:15:59;0.63;;;0.63;;
6015;SDS011;3036;49.960;8.454;2023-04-24T05:18:26;1.33;;;0.70;;
6015;SDS011;3036;49.960;8.454;2023-04-24T05:20:53;0.60;;;0.60;;
6015;SDS011;3036;49.960;8.454;2023-04-24T05:23:22;0.60;;;0.60;;
6015;SDS011;3036;49.960;8.454;2023-04-24T05:25:49;0.80;;;0.80;;
6015;SDS011;3036;49.960;8.454;2023-04-24T05:28:16;0.60;;;0.60;;
6015;SDS011;3036;49.960;8.454;2023-04-24T05:30:46;1.27;;;0.60;;
6015;SDS011;3036;49.960;8.454;2023-04-24T05:33:24;0.60;;;0.60;;
6015;SDS011;3036;49.960;8.454;2023-04-24T05:35:51;0.77;;;0.60;;
6015;SDS011;3036;49.960;8.454;2023-04-24T05:38:18;0.43;;;0.43;;
6015;SDS011;3036;49.960;8.454;2023-04-24T05:40:46;0.50;;;0.50;;
6015;SDS011;3036;49.960;8.454;2023-04-24T05:43:13;0.50;;;0.50;;
6015;SDS011;3036;49.960;8.454;2023-04-24T05:45:40;0.43;;;0.43;;
6015;SDS011;3036;49.960;8.454;2023-04-24T05:48:07;0.80;;;0.80;;
6015;SDS011;3036;49.960;8.454;2023-04-24T05:50:35;0.70;;;0.70;;
6015;SDS011;3036;49.960;8.454;2023-04-24T05:53:03;0.70;;;0.70;;
6015;SDS011;3036;49.960;8.454;2023-04-24T05:55:32;0.60;;;0.60;;
6015;SDS011;3036;49.960;8.454;2023-04-24T05:58:00;0.63;;;0.63;;
6015;SDS011;3036;49.960;8.454;2023-04-24T06:00:27;1.03;;;1.03;;
6015;SDS011;3036;49.960;8.454;2023-04-24T06:02:54;0.70;;;0.67;;
6015;SDS011;3036;49.960;8.454;2023-04-24T06:05:21;0.87;;;0.87;;
6015;SDS011;3036;49.960;8.454;2023-04-24T06:07:48;0.70;;;0.70;;
6015;SDS011;3036;49.960;8.454;2023-04-24T06:10:15;1.70;;;0.90;;
6015;SDS011;3036;49.960;8.454;2023-04-24T06:12:42;0.70;;;0.70;;
6015;SDS011;3036;49.960;8.454;2023-04-24T06:15:11;0.93;;;0.93;;
6015;SDS011;3036;49.960;8.454;2023-04-24T06:17:38;0.83;;;0.83;;
6015;SDS011;3036;49.960;8.454;2023-04-24T06:20:06;0.80;;;0.80;;
6015;SDS011;3036;49.960;8.454;2023-04-24T06:22:33;0.90;;;0.90;;
6015;SDS011;3036;49.960;8.454;2023-04-24T06:25:00;1.50;;;1.00;;
6015;SDS011;3036;49.960;8.454;2023-04-24T06:27:27;0.60;;;0.60;;
6015;SDS011;3036;49.960;8.454;2023-04-24T06:29:54;1.00;;;1.00;;
6015;SDS011;3036;49.960;8.454;2023-04-24T06:32:23;0.97;;;0.93;;
6015;SDS011;3036;49.960;8.454;2023-04-24T06:34:50;1.17;;;1.08;;
6015;SDS011;3036;49.960;8.454;2023-04-24T06:37:18;1.20;;;1.20;;
6015;SDS011;3036;49.960;8.454;2023-04-24T06:39:45;1.03;;;1.03;;
6015;SDS011;3036;49.960;8.454;2023-04-24T06:42:12;2.37;;;1.27;;
6015;SDS011;3036;49.960;8.454;2023-04-24T06:44:39;1.07;;;1.07;;
6015;SDS011;3036;49.960;8.454;2023-04-24T06:47:06;1.40;;;1.30;;
6015;SDS011;3036;49.960;8.454;2023-04-24T06:49:35;1.07;;;1.03;;
6015;SDS011;3036;49.960;8.454;2023-04-24T06:52:02;1.40;;;1.33;;
6015;SDS011;3036;49.960;8.454;2023-04-24T06:54:30;1.20;;;1.20;;
6015;SDS011;3036;49.960;8.454;2023-04-24T06:56:57;1.37;;;1.33;;
6015;SDS011;3036;49.960;8.454;2023-04-24T06:59:25;2.17;;;1.57;;
6015;SDS011;3036;49.960;8.454;2023-04-24T07:01:52;1.33;;;1.23;;
6015;SDS011;3036;49.960;8.454;2023-04-24T07:04:20;1.23;;;1.23;;
6015;SDS011;3036;49.960;8.454;2023-04-24T07:06:48;1.40;;;1.40;;
6015;SDS011;3036;49.960;8.454;2023-04-24T07:09:16;1.23;;;1.23;;
6015;SDS011;3036;49.960;8.454;2023-04-24T07:11:44;2.60;;;1.00;;
6015;SDS011;3036;49.960;8.454;2023-04-24T07:14:11;1.20;;;1.20;;
6015;SDS011;3036;49.960;8.454;2023-04-24T07:16:38;0.98;;;0.98;;
6015;SDS011;3036;49.960;8.454;2023-04-24T07:19:05;1.73;;;1.17;;
6015;SDS011;3036;49.960;8.454;2023-04-24T07:21:32;1.42;;;1.33;;
6015;SDS011;3036;49.960;8.454;2023-04-24T07:24:00;4.45;;;1.13;;
6015;SDS011;3036;49.960;8.454;2023-04-24T07:26:28;2.28;;;1.35;;
6015;SDS011;3036;49.960;8.454;2023-04-24T07:28:55;1.13;;;1.13;;
6015;SDS011;3036;49.960;8.454;2023-04-24T07:31:22;1.00;;;1.00;;
6015;SDS011;3036;49.960;8.454;2023-04-24T07:33:49;2.33;;;1.17;;
6015;SDS011;3036;49.960;8.454;2023-04-24T07:36:16;1.02;;;1.02;;
6015;SDS011;3036;49.960;8.454;2023-04-24T07:38:44;1.13;;;0.90;;
6015;SDS011;3036;49.960;8.454;2023-04-24T07:41:12;2.25;;;0.82;;
6015;SDS011;3036;49.960;8.454;2023-04-24T07:43:39;1.13;;;1.13;;
6015;SDS011;3036;49.960;8.454;2023-04-24T07:46:06;1.95;;;0.80;;
6015;SDS011;3036;49.960;8.454;2023-04-24T07:48:34;2.28;;;0.80;;
6015;SDS011;3036;49.960;8.454;2023-04-24T07:51:01;0.82;;;0.82;;
6015;SDS011;3036;49.960;8.454;2023-04-24T07:53:28;0.80;;;0.80;;
6015;SDS011;3036;49.960;8.454;2023-04-24T07:55:55;1.08;;;1.08;;
6015;SDS011;3036;49.960;8.454;2023-04-24T07:58:24;1.20;;;1.10;;
6015;SDS011;3036;49.960;8.454;2023-04-24T08:00:51;1.30;;;1.05;;
6015;SDS011;3036;49.960;8.454;2023-04-24T08:03:18;1.45;;;0.88;;
6015;SDS011;3036;49.960;8.454;2023-04-24T08:05:45;0.80;;;0.80;;
6015;SDS011;3036;49.960;8.454;2023-04-24T08:08:12;0.75;;;0.75;;
6015;SDS011;3036;49.960;8.454;2023-04-24T08:10:39;0.90;;;0.90;;
6015;SDS011;3036;49.960;8.454;2023-04-24T08:13:06;0.80;;;0.80;;
6015;SDS011;3036;49.960;8.454;2023-04-24T08:15:35;2.15;;;0.90;;
6015;SDS011;3036;49.960;8.454;2023-04-24T08:18:02;0.82;;;0.82;;
6015;SDS011;3036;49.960;8.454;2023-04-24T08:20:29;0.80;;;0.80;;
6015;SDS011;3036;49.960;8.454;2023-04-24T08:22:56;0.60;;;0.60;;
6015;SDS011;3036;49.960;8.454;2023-04-24T08:25:23;0.80;;;0.80;;
6015;SDS011;3036;49.960;8.454;2023-04-24T08:27:50;0.98;;;0.80;;
6015;SDS011;3036;49.960;8.454;2023-04-24T08:30:17;1.38;;;0.90;;
6015;SDS011;3036;49.960;8.454;2023-04-24T08:32:47;0.73;;;0.73;;
6015;SDS011;3036;49.960;8.454;2023-04-24T08:35:14;0.95;;;0.95;;
6015;SDS011;3036;49.960;8.454;2023-04-24T08:37:41;0.90;;;0.90;;
6015;SDS011;3036;49.960;8.454;2023-04-24T08:40:11;0.75;;;0.75;;
6015;SDS011;3036;49.960;8.454;2023-04-24T08:42:39;0.93;;;0.93;;
6015;SDS011;3036;49.960;8.454;2023-04-24T08:45:06;0.88;;;0.88;;
6015;SDS011;3036;49.960;8.454;2023-04-24T08:47:33;0.70;;;0.70;;
6015;SDS011;3036;49.960;8.454;2023-04-24T08:50:03;0.90;;;0.90;;
6015;SDS011;3036;49.960;8.454;2023-04-24T08:52:31;0.88;;;0.88;;
6015;SDS011;3036;49.960;8.454;2023-04-24T08:54:59;0.63;;;0.63;;
6015;SDS011;3036;49.960;8.454;2023-04-24T08:57:27;0.70;;;0.70;;
6015;SDS011;3036;49.960;8.454;2023-04-24T08:59:54;0.98;;;0.98;;
6015;SDS011;3036;49.960;8.454;2023-04-24T09:02:21;0.70;;;0.70;;
6015;SDS011;3036;49.960;8.454;2023-04-24T09:04:48;1.02;;;1.02;;
6015;SDS011;3036;49.960;8.454;2023-04-24T09:07:17;2.50;;;0.77;;
6015;SDS011;3036;49.960;8.454;2023-04-24T09:09:45;0.80;;;0.80;;
6015;SDS011;3036;49.960;8.454;2023-04-24T09:12:12;1.20;;;0.90;;
6015;SDS011;3036;49.960;8.454;2023-04-24T09:14:39;1.00;;;1.00;;
6015;SDS011;3036;49.960;8.454;2023-04-24T09:17:09;0.80;;;0.80;;
6015;SDS011;3036;49.960;8.454;2023-04-24T09:19:36;0.88;;;0.88;;
6015;SDS011;3036;49.960;8.454;2023-04-24T09:22:04;0.70;;;0.70;;
6015;SDS011;3036;49.960;8.454;2023-04-24T09:24:33;0.57;;;0.57;;
6015;SDS011;3036;49.960;8.454;2023-04-24T09:27:01;0.77;;;0.77;;
6015;SDS011;3036;49.960;8.454;2023-04-24T09:29:28;0.65;;;0.65;;
6015;SDS011;3036;49.960;8.454;2023-04-24T09:31:56;1.75;;;1.02;;
6015;SDS011;3036;49.960;8.454;2023-04-24T09:34:24;0.90;;;0.90;;
6015;SDS011;3036;49.960;8.454;2023-04-24T09:36:51;0.73;;;0.73;;
6015;SDS011;3036;49.960;8.454;2023-04-24T09:39:18;0.70;;;0.70;;
6015;SDS011;3036;49.960;8.454;2023-04-24T09:41:48;0.65;;;0.65;;
6015;SDS011;3036;49.960;8.454;2023-04-24T09:44:15;0.60;;;0.60;;
6015;SDS011;3036;49.960;8.454;2023-04-24T09:46:44;0.70;;;0.70;;
6015;SDS011;3036;49.960;8.454;2023-04-24T09:49:14;1.23;;;0.85;;
6015;SDS011;3036;49.960;8.454;2023-04-24T09:51:41;0.80;;;0.80;;
6015;SDS011;3036;49.960;8.454;2023-04-24T09:54:13;0.65;;;0.65;;
6015;SDS011;3036;49.960;8.454;2023-04-24T09:56:42;1.10;;;0.60;;
6015;SDS011;3036;49.960;8.454;2023-04-24T09:59:11;0.60;;;0.60;;
6015;SDS011;3036;49.960;8.454;2023-04-24T10:01:38;0.52;;;0.52;;
6015;SDS011;3036;49.960;8.454;2023-04-24T10:04:14;0.57;;;0.57;;
6015;SDS011;3036;49.960;8.454;2023-04-24T10:06:42;1.02;;;0.52;;
6015;SDS011;3036;49.960;8.454;2023-04-24T10:09:09;0.47;;;0.47;;
6015;SDS011;3036;49.960;8.454;2023-04-24T10:11:37;0.85;;;0.85;;
6015;SDS011;3036;49.960;8.454;2023-04-24T10:14:08;0.50;;;0.50;;
6015;SDS011;3036;49.960;8.454;2023-04-24T10:16:38;0.57;;;0.57;;
6015;SDS011;3036;49.960;8.454;2023-04-24T10:19:06;0.45;;;0.45;;
6015;SDS011;3036;49.960;8.454;2023-04-24T10:21:34;0.90;;;0.70;;
6015;SDS011;3036;49.960;8.454;2023-04-24T10:24:02;1.15;;;0.80;;
6015;SDS011;3036;49.960;8.454;2023-04-24T10:26:29;0.93;;;0.93;;
6015;SDS011;3036;49.960;8.454;2023-04-24T10:28:57;4.30;;;0.60;;
6015;SDS011;3036;49.960;8.454;2023-04-24T10:31:25;0.50;;;0.50;;
6015;SDS011;3036;49.960;8.454;2023-04-24T10:33:54;0.45;;;0.45;;
6015;SDS011;3036;49.960;8.454;2023-04-24T10:36:22;2.83;;;0.80;;
6015;SDS011;3036;49.960;8.454;2023-04-24T10:38:51;0.65;;;0.65;;
6015;SDS011;3036;49.960;8.454;2023-04-24T10:41:19;0.75;;;0.75;;
6015;SDS011;3036;49.960;8.454;2023-04-24T10:43:48;0.88;;;0.88;;
6015;SDS011;3036;49.960;8.454;2023-04-24T10:46:16;1.08;;;1.00;;
6015;SDS011;3036;49.960;8.454;2023-04-24T10:48:51;4.18;;;0.93;;
6015;SDS011;3036;49.960;8.454;2023-04-24T10:51:21;0.70;;;0.70;;
6015;SDS011;3036;49.960;8.454;2023-04-24T10:53:49;1.65;;;0.85;;
6015;SDS011;3036;49.960;8.454;2023-04-24T10:56:16;0.70;;;0.70;;
6015;SDS011;3036;49.960;8.454;2023-04-24T10:58:44;0.82;;;0.82;;
6015;SDS011;3036;49.960;8.454;2023-04-24T11:01:22;1.65;;;1.33;;
6015;SDS011;3036;49.960;8.454;2023-04-24T11:03:54;2.28;;;1.00;;
6015;SDS011;3036;49.960;8.454;2023-04-24T11:06:29;2.00;;;1.27;;
6015;SDS011;3036;49.960;8.454;2023-04-24T11:09:01;1.05;;;1.05;;
6015;SDS011;3036;49.960;8.454;2023-04-24T11:11:29;0.60;;;0.60;;
6015;SDS011;3036;49.960;8.454;2023-04-24T11:14:03;1.17;;;0.70;;
6015;SDS011;3036;49.960;8.454;2023-04-24T11:16:31;0.43;;;0.43;;
6015;SDS011;3036;49.960;8.454;2023-04-24T11:19:03;0.40;;;0.40;;
6015;SDS011;3036;49.960;8.454;2023-04-24T11:21:32;0.35;;;0.35;;
6015;SDS011;3036;49.960;8.454;2023-04-24T11:26:41;0.68;;;0.68;;
6015;SDS011;3036;49.960;8.454;2023-04-24T11:29:08;0.47;;;0.47;;
6015;SDS011;3036;49.960;8.454;2023-04-24T11:31:36;0.60;;;0.60;;
6015;SDS011;3036;49.960;8.454;2023-04-24T11:34:07;0.30;;;0.30;;
6015;SDS011;3036;49.960;8.454;2023-04-24T11:36:36;0.50;;;0.47;;
6015;SDS011;3036;49.960;8.454;2023-04-24T11:39:04;0.50;;;0.50;;
6015;SDS011;3036;49.960;8.454;2023-04-24T11:41:31;0.45;;;0.45;;
6015;SDS011;3036;49.960;8.454;2023-04-24T11:43:58;0.30;;;0.30;;
6015;SDS011;3036;49.960;8.454;2023-04-24T11:46:28;0.40;;;0.40;;
6015;SDS011;3036;49.960;8.454;2023-04-24T11:48:56;0.30;;;0.30;;
6015;SDS011;3036;49.960;8.454;2023-04-24T11:51:24;0.35;;;0.35;;
6015;SDS011;3036;49.960;8.454;2023-04-24T11:53:53;0.43;;;0.43;;
6015;SDS011;3036;49.960;8.454;2023-04-24T11:56:20;0.65;;;0.40;;
6015;SDS011;3036;49.960;8.454;2023-04-24T11:58:48;0.50;;;0.50;;
6015;SDS011;3036;49.960;8.454;2023-04-24T12:01:15;0.60;;;0.60;;
6015;SDS011;3036;49.960;8.454;2023-04-24T12:03:42;0.68;;;0.68;;
6015;SDS011;3036;49.960;8.454;2023-04-24T12:06:13;0.60;;;0.60;;
6015;SDS011;3036;49.960;8.454;2023-04-24T12:08:40;1.48;;;0.90;;
6015;SDS011;3036;49.960;8.454;2023-04-24T12:11:09;0.75;;;0.75;;
6015;SDS011;3036;49.960;8.454;2023-04-24T12:13:37;2.63;;;0.80;;
6015;SDS011;3036;49.960;8.454;2023-04-24T12:16:04;0.57;;;0.57;;
6015;SDS011;3036;49.960;8.454;2023-04-24T12:18:31;0.93;;;0.85;;
6015;SDS011;3036;49.960;8.454;2023-04-24T12:21:17;0.77;;;0.77;;
6015;SDS011;3036;49.960;8.454;2023-04-24T12:23:44;0.77;;;0.77;;
6015;SDS011;3036;49.960;8.454;2023-04-24T12:26:14;0.60;;;0.60;;
6015;SDS011;3036;49.960;8.454;2023-04-24T12:28:42;18.25;;;6.45;;
6015;SDS011;3036;49.960;8.454;2023-04-24T12:31:09;3.13;;;1.98;;
6015;SDS011;3036;49.960;8.454;2023-04-24T12:33:36;1.13;;;1.13;;
6015;SDS011;3036;49.960;8.454;2023-04-24T12:36:04;1.30;;;0.95;;
6015;SDS011;3036;49.960;8.454;2023-04-24T12:38:31;2.58;;;2.42;;
6015;SDS011;3036;49.960;8.454;2023-04-24T12:41:05;3.03;;;2.92;;
6015;SDS011;3036;49.960;8.454;2023-04-24T12:43:34;1.60;;;1.50;;
6015;SDS011;3036;49.960;8.454;2023-04-24T12:46:01;2.65;;;2.45;;
6015;SDS011;3036;49.960;8.454;2023-04-24T12:48:28;1.42;;;1.40;;
6015;SDS011;3036;49.960;8.454;2023-04-24T12:50:56;1.63;;;1.63;;
6015;SDS011;3036;49.960;8.454;2023-04-24T12:53:26;1.05;;;1.05;;
6015;SDS011;3036;49.960;8.454;2023-04-24T12:55:54;1.42;;;1.42;;
6015;SDS011;3036;49.960;8.454;2023-04-24T12:58:21;1.38;;;1.02;;
6015;SDS011;3036;49.960;8.454;2023-04-24T13:00:50;1.73;;;1.17;;
6015;SDS011;3036;49.960;8.454;2023-04-24T13:03:17;1.38;;;1.30;;
6015;SDS011;3036;49.960;8.454;2023-04-24T13:05:44;1.40;;;1.40;;
6015;SDS011;3036;49.960;8.454;2023-04-24T13:08:11;1.55;;;1.45;;
6015;SDS011;3036;49.960;8.454;2023-04-24T13:10:39;1.98;;;1.88;;
6015;SDS011;3036;49.960;8.454;2023-04-24T13:13:06;1.65;;;1.58;;
6015;SDS011;3036;49.960;8.454;2023-04-24T13:15:33;1.30;;;1.30;;
6015;SDS011;3036;49.960;8.454;2023-04-24T13:18:02;1.42;;;1.33;;
6015;SDS011;3036;49.960;8.454;2023-04-24T13:20:29;1.17;;;1.17;;
6015;SDS011;3036;49.960;8.454;2023-04-24T13:22:56;1.08;;;1.08;;
6015;SDS011;3036;49.960;8.454;2023-04-24T13:25:23;1.35;;;1.10;;
6015;SDS011;3036;49.960;8.454;2023-04-24T13:27:51;1.17;;;1.08;;
6015;SDS011;3036;49.960;8.454;2023-04-24T13:30:18;1.02;;;1.00;;
6015;SDS011;3036;49.960;8.454;2023-04-24T13:32:45;2.17;;;1.00;;
6015;SDS011;3036;49.960;8.454;2023-04-24T13:35:14;1.00;;;1.00;;
6015;SDS011;3036;49.960;8.454;2023-04-24T13:37:41;1.20;;;1.20;;
6015;SDS011;3036;49.960;8.454;2023-04-24T13:40:08;0.93;;;0.93;;
6015;SDS011;3036;49.960;8.454;2023-04-24T13:42:35;1.00;;;1.00;;
6015;SDS011;3036;49.960;8.454;2023-04-24T13:45:03;1.25;;;1.20;;
6015;SDS011;3036;49.960;8.454;2023-04-24T13:47:39;1.30;;;1.20;;
6015;SDS011;3036;49.960;8.454;2023-04-24T13:50:09;1.15;;;1.15;;
6015;SDS011;3036;49.960;8.454;2023-04-24T13:52:38;1.27;;;1.23;;
6015;SDS011;3036;49.960;8.454;2023-04-24T13:55:06;1.27;;;1.27;;
6015;SDS011;3036;49.960;8.454;2023-04-24T13:57:33;1.35;;;1.25;;
6015;SDS011;3036;49.960;8.454;2023-04-24T14:00:00;1.20;;;1.20;;
6015;SDS011;3036;49.960;8.454;2023-04-24T14:02:28;1.48;;;1.38;;
6015;SDS011;3036;49.960;8.454;2023-04-24T14:04:56;1.65;;;1.55;;
6015;SDS011;3036;49.960;8.454;2023-04-24T14:07:23;1.33;;;1.10;;
6015;SDS011;3036;49.960;8.454;2023-04-24T14:09:52;1.33;;;1.30;;
6015;SDS011;3036;49.960;8.454;2023-04-24T14:12:19;1.13;;;1.13;;
6015;SDS011;3036;49.960;8.454;2023-04-24T14:14:46;1.52;;;1.42;;
6015;SDS011;3036;49.960;8.454;2023-04-24T14:17:14;1.30;;;1.23;;
6015;SDS011;3036;49.960;8.454;2023-04-24T14:19:41;1.02;;;1.02;;
6015;SDS011;3036;49.960;8.454;2023-04-24T14:22:09;1.15;;;1.10;;
6015;SDS011;3036;49.960;8.454;2023-04-24T14:24:36;1.02;;;0.93;;
6015;SDS011;3036;49.960;8.454;2023-04-24T14:27:05;10.57;;;1.20;;
6015;SDS011;3036;49.960;8.454;2023-04-24T14:29:32;1.08;;;1.08;;
6015;SDS011;3036;49.960;8.454;2023-04-24T14:31:59;1.20;;;1.20;;
6015;SDS011;3036;49.960;8.454;2023-04-24T14:34:26;1.45;;;1.13;;
6015;SDS011;3036;49.960;8.454;2023-04-24T14:36:53;1.40;;;1.40;;
6015;SDS011;3036;49.960;8.454;2023-04-24T14:39:20;3.40;;;2.88;;
6015;SDS011;3036;49.960;8.454;2023-04-24T14:41:47;2.25;;;2.00;;
6015;SDS011;3036;49.960;8.454;2023-04-24T14:44:15;1.55;;;1.55;;
6015;SDS011;3036;49.960;8.454;2023-04-24T14:46:42;1.55;;;1.52;;
6015;SDS011;3036;49.960;8.454;2023-04-24T14:49:10;1.30;;;1.30;;
6015;SDS011;3036;49.960;8.454;2023-04-24T14:51:37;1.30;;;1.20;;
6015;SDS011;3036;49.960;8.454;2023-04-24T14:54:05;1.45;;;1.00;;
6015;SDS011;3036;49.960;8.454;2023-04-24T14:56:32;1.55;;;1.50;;
6015;SDS011;3036;49.960;8.454;2023-04-24T14:58:59;1.00;;;1.00;;
6015;SDS011;3036;49.960;8.454;2023-04-24T15:01:28;1.20;;;1.20;;
6015;SDS011;3036;49.960;8.454;2023-04-24T15:03:55;1.27;;;1.27;;
6015;SDS011;3036;49.960;8.454;2023-04-24T15:06:22;1.75;;;1.60;;
6015;SDS011;3036;49.960;8.454;2023-04-24T15:08:49;1.33;;;1.25;;
6015;SDS011;3036;49.960;8.454;2023-04-24T15:11:17;1.55;;;1.50;;
6015;SDS011;3036;49.960;8.454;2023-04-24T15:13:44;1.15;;;1.15;;
6015;SDS011;3036;49.960;8.454;2023-04-24T15:16:11;1.88;;;1.77;;
6015;SDS011;3036;49.960;8.454;2023-04-24T15:18:39;1.90;;;1.60;;
6015;SDS011;3036;49.960;8.454;2023-04-24T15:21:06;0.98;;;0.98;;